Time;durP1;ratioP1;P1;durP2;ratioP2;P2;SDS_P1;SDS_P2;PMS_P1;PMS_P2;Temp;Humidity;BMP_temperature;BMP_pressure;BME280_temperature;BME280_humidity;BME280_pressure;Samples;Min_cycle;Max_cycle;Signal;HPM_P1;HPM_P2
2024/02/01 00:02:29;;;;;;;64.7;35.6;;;;;;;2.38;88.92;99576.666666667;;;;
2024/02/01 00:13:29;;;;;;;64.7;35.6;;;;;;;2.55;88.62;99566.666666667;;;;
2024/02/01 00:23:29;;;;;;;64.7;35.6;;;;;;;2.58;88.16;99540;;;;
2024/02/01 00:34:32;;;;;;;53.3;32.3;;;;;;;2.49;88.03;99528.333333333;;;;
2024/02/01 00:45:29;;;;;;;53.3;32.3;;;;;;;2.6;87.37;99501.666666667;;;;
2024/02/01 00:55:29;;;;;;;53.3;32.3;;;;;;;2.55;87.46;99475;;;;
2024/02/01 01:06:29;;;;;;;56.2;33.1;;;;;;;2.59;87.15;99458.333333333;;;;
2024/02/01 01:16:30;;;;;;;56.2;33.1;;;;;;;2.6;86.74;99453.333333333;;;;
2024/02/01 01:26:30;;;;;;;56.2;33.1;;;;;;;2.54;86.95;99436.666666667;;;;
2024/02/01 01:37:32;;;;;;;45.2;31;;;;;;;2.55;86.89;99416.666666667;;;;
2024/02/01 01:48:29;;;;;;;45.2;31;;;;;;;2.43;86.7;99393.333333333;;;;
2024/02/01 01:59:29;;;;;;;47.5;29.5;;;;;;;2.26;86.46;99380;;;;
2024/02/01 02:10:29;;;;;;;47.5;29.5;;;;;;;2.02;85.91;99350;;;;
2024/02/01 02:20:29;;;;;;;47.5;29.5;;;;;;;1.57;86.87;99336.666666667;;;;
2024/02/01 02:30:29;;;;;;;55.3;32.2;;;;;;;1.29;86.28;99320;;;;
2024/02/01 02:41:29;;;;;;;55.3;32.2;;;;;;;0.97;86.06;99298.333333333;;;;
2024/02/01 02:51:30;;;;;;;55.3;32.2;;;;;;;0.69;86.93;99268.333333333;;;;
2024/02/01 03:02:30;;;;;;;57;32.9;;;;;;;0.51;88.79;99255;;;;
2024/02/01 03:12:29;;;;;;;57;32.9;;;;;;;0.4;87.76;99243.333333333;;;;
2024/02/01 03:22:29;;;;;;;57;32.9;;;;;;;0.22;87.65;99238.333333333;;;;
2024/02/01 03:33:30;;;;;;;48.8;28.9;;;;;;;0.03;87.75;99250;;;;
2024/02/01 03:43:29;;;;;;;48.8;28.9;;;;;;;-0.13;88.43;99265;;;;
2024/02/01 03:53:29;;;;;;;48.8;28.9;;;;;;;-0.22;88.41;99268.333333333;;;;
2024/02/01 04:04:30;;;;;;;54;30;;;;;;;-0.25;89.56;99275;;;;
2024/02/01 04:15:29;;;;;;;54;30;;;;;;;-0.17;90.47;99253.333333333;;;;
2024/02/01 04:25:29;;;;;;;54;30;;;;;;;0.17;91.77;99238.333333333;;;;
2024/02/01 04:36:29;;;;;;;56.1;32.4;;;;;;;1;90.93;99220;;;;
2024/02/01 04:47:30;;;;;;;56.1;32.4;;;;;;;1.61;89.09;99208.333333333;;;;
2024/02/01 04:58:29;;;;;;;13.9;7.7;;;;;;;2.27;85.99;99198.333333333;;;;
2024/02/01 05:08:30;;;;;;;13.9;7.7;;;;;;;2.33;85.46;99201.666666667;;;;
2024/02/01 05:19:30;;;;;;;13.9;7.7;;;;;;;2.57;84.68;99210;;;;
2024/02/01 05:29:29;;;;;;;10.2;5.6;;;;;;;2.66;84.62;99223.333333333;;;;
2024/02/01 05:40:29;;;;;;;10.2;5.6;;;;;;;2.76;84.05;99220;;;;
2024/02/01 05:51:29;;;;;;;10.2;5.6;;;;;;;2.4;83.46;99210;;;;
2024/02/01 06:01:30;;;;;;;14.8;7.3;;;;;;;2.36;84.26;99201.666666667;;;;
2024/02/01 06:12:30;;;;;;;14.8;7.3;;;;;;;2.28;84.84;99203.333333333;;;;
2024/02/01 06:23:29;;;;;;;14.8;7.3;;;;;;;2.5;84.74;99208.333333333;;;;
2024/02/01 06:33:29;;;;;;;11.5;5.3;;;;;;;2.66;84.61;99205;;;;
2024/02/01 06:43:41;;;;;;;11.5;5.3;;;;;;;3;84.25;99206.666666667;;;;
2024/02/01 06:54:39;;;;;;;11.5;5.3;;;;;;;3.37;83.29;99186.666666667;;;;
2024/02/01 07:04:41;;;;;;;11.1;5.2;;;;;;;3.78;82.59;99161.666666667;;;;
2024/02/01 07:15:30;;;;;;;11.1;5.2;;;;;;;4.36;80.42;99146.666666667;;;;
2024/02/01 07:25:46;;;;;;;11.1;5.2;;;;;;;4.74;79.48;99145;;;;
2024/02/01 08:16:29;;;;;;;14.3;7.6;;;;;;;5.94;76.22;99128.333333333;;;;
2024/02/01 08:26:37;;;;;;;14.3;7.6;;;;;;;6.08;75.41;99125;;;;
2024/02/01 08:37:30;;;;;;;17.7;10.6;;;;;;;6.01;76.14;99136.666666667;;;;
2024/02/01 08:47:30;;;;;;;17.7;10.6;;;;;;;5.97;77.01;99145;;;;
2024/02/01 08:58:29;;;;;;;21.5;14.5;;;;;;;6.03;77.33;99151.666666667;;;;
2024/02/01 09:08:35;;;;;;;21.5;14.5;;;;;;;6.2;77;99151.666666667;;;;
2024/02/01 09:19:30;;;;;;;21.5;14.5;;;;;;;6.43;76.68;99153.333333333;;;;
2024/02/01 09:30:31;;;;;;;20.8;14.2;;;;;;;6.53;76.1;99146.666666667;;;;
2024/02/01 09:40:30;;;;;;;20.8;14.2;;;;;;;6.88;74.95;99156.666666667;;;;
2024/02/01 09:50:30;;;;;;;20.8;14.2;;;;;;;7.68;73.7;99158.333333333;;;;
2024/02/01 10:01:30;;;;;;;17.7;12.2;;;;;;;7.71;72.71;99148.333333333;;;;
2024/02/01 10:12:30;;;;;;;17.7;12.2;;;;;;;7.65;73.13;99150;;;;
2024/02/01 10:23:30;;;;;;;17.7;12.2;;;;;;;7.12;76.28;99161.666666667;;;;
2024/02/01 10:33:31;;;;;;;16.4;10.1;;;;;;;6.62;79.29;99173.333333333;;;;
2024/02/01 10:44:32;;;;;;;16.4;10.1;;;;;;;6.08;82.69;99173.333333333;;;;
2024/02/01 10:55:30;;;;;;;16.4;10.1;;;;;;;5.89;83.29;99171.666666667;;;;
2024/02/01 11:06:31;;;;;;;16.1;10.3;;;;;;;5.83;83.67;99158.333333333;;;;
2024/02/01 11:17:31;;;;;;;16.1;10.3;;;;;;;5.72;83.49;99165;;;;
2024/02/01 11:28:30;;;;;;;16.8;11.4;;;;;;;5.54;84.98;99161.666666667;;;;
2024/02/01 11:39:29;;;;;;;16.8;11.4;;;;;;;5.35;85.83;99160;;;;
2024/02/01 11:49:31;;;;;;;16.8;11.4;;;;;;;5.17;86.49;99155;;;;
2024/02/01 11:59:30;;;;;;;20.6;13.3;;;;;;;5.26;86.28;99146.666666667;;;;
2024/02/01 12:09:30;;;;;;;20.6;13.3;;;;;;;5.37;86.08;99145;;;;
2024/02/01 12:19:30;;;;;;;20.6;13.3;;;;;;;5.57;86.13;99136.666666667;;;;
2024/02/01 12:30:31;;;;;;;19.3;13;;;;;;;5.59;85.6;99121.666666667;;;;
2024/02/01 12:41:34;;;;;;;19.3;13;;;;;;;5.81;85;99113.333333333;;;;
2024/02/01 12:51:30;;;;;;;19.3;13;;;;;;;5.86;85.01;99108.333333333;;;;
2024/02/01 13:02:30;;;;;;;19.8;10.4;;;;;;;5.72;84.81;99118.333333333;;;;
2024/02/01 13:12:30;;;;;;;19.8;10.4;;;;;;;5.61;85.27;99123.333333333;;;;
2024/02/01 13:23:30;;;;;;;19.8;10.4;;;;;;;5.6;86.58;99111.666666667;;;;
2024/02/01 13:34:37;;;;;;;18.5;10.5;;;;;;;5.6;86.27;99113.333333333;;;;
2024/02/01 13:45:30;;;;;;;18.5;10.5;;;;;;;5.69;86.11;99116.666666667;;;;
2024/02/01 13:55:30;;;;;;;18.5;10.5;;;;;;;5.8;85.38;99120;;;;
2024/02/01 14:06:30;;;;;;;14.2;10.6;;;;;;;5.53;86.39;99126.666666667;;;;
2024/02/01 14:16:30;;;;;;;14.2;10.6;;;;;;;5.46;86.92;99138.333333333;;;;
2024/02/01 14:27:30;;;;;;;14.2;9.6;;;;;;;5.49;86.79;99145;;;;
2024/02/01 14:38:30;;;;;;;14.2;9.6;;;;;;;5.38;87.28;99148.333333333;;;;
2024/02/01 14:48:30;;;;;;;14.2;9.6;;;;;;;5.4;87.31;99145;;;;
2024/02/01 14:58:30;;;;;;;13.2;9.2;;;;;;;5.47;87.45;99160;;;;
2024/02/01 15:08:30;;;;;;;13.2;9.2;;;;;;;5.36;88.01;99178.333333333;;;;
2024/02/01 15:19:32;;;;;;;13.2;9.2;;;;;;;5.16;87.71;99183.333333333;;;;
2024/02/01 15:29:30;;;;;;;14.4;9.2;;;;;;;5.07;87.52;99196.666666667;;;;
2024/02/01 15:40:30;;;;;;;14.4;9.2;;;;;;;4.92;87.28;99208.333333333;;;;
2024/02/01 15:50:30;;;;;;;14.4;9.2;;;;;;;4.75;87.29;99216.666666667;;;;
2024/02/01 16:00:30;;;;;;;12.4;7.8;;;;;;;4.79;87.48;99235;;;;
2024/02/01 16:11:30;;;;;;;12.4;7.8;;;;;;;4.75;87.48;99238.333333333;;;;
2024/02/01 16:21:30;;;;;;;12.4;7.8;;;;;;;4.56;87.64;99256.666666667;;;;
2024/02/01 16:32:30;;;;;;;15.9;9.7;;;;;;;4.52;87.65;99266.666666667;;;;
2024/02/01 16:43:30;;;;;;;15.9;9.7;;;;;;;4.61;87.43;99288.333333333;;;;
2024/02/01 16:54:30;;;;;;;15.9;9.7;;;;;;;4.56;87.52;99300;;;;
2024/02/01 17:04:30;;;;;;;14.4;9.1;;;;;;;4.53;87.61;99313.333333333;;;;
2024/02/01 17:15:30;;;;;;;14.4;9.1;;;;;;;4.46;87.67;99318.333333333;;;;
2024/02/01 17:25:30;;;;;;;14.4;9.1;;;;;;;4.44;87.75;99328.333333333;;;;
2024/02/01 17:36:30;;;;;;;17.5;10.1;;;;;;;4.5;87.11;99328.333333333;;;;
2024/02/01 17:47:30;;;;;;;17.5;10.1;;;;;;;4.44;86.92;99333.333333333;;;;
2024/02/01 17:57:30;;;;;;;20.3;11.6;;;;;;;4.39;86.96;99336.666666667;;;;
2024/02/01 18:08:30;;;;;;;20.3;11.6;;;;;;;4.33;87.24;99341.666666667;;;;
2024/02/01 18:18:30;;;;;;;20.3;11.6;;;;;;;4.3;87.5;99338.333333333;;;;
2024/02/01 18:28:30;;;;;;;21.5;12.1;;;;;;;4.39;87.38;99328.333333333;;;;
2024/02/01 18:39:30;;;;;;;21.5;12.1;;;;;;;4.44;87.13;99328.333333333;;;;
2024/02/01 18:50:30;;;;;;;21.5;12.1;;;;;;;4.49;86.8;99331.666666667;;;;
2024/02/01 19:01:30;;;;;;;24.9;14.8;;;;;;;4.5;86.31;99335;;;;
2024/02/01 19:11:30;;;;;;;24.9;14.8;;;;;;;4.59;85.61;99336.666666667;;;;
2024/02/01 19:21:30;;;;;;;24.9;14.8;;;;;;;4.62;85.37;99356.666666667;;;;
2024/02/01 19:31:30;;;;;;;22.9;13.7;;;;;;;4.68;85.32;99345;;;;
2024/02/01 19:42:30;;;;;;;22.9;13.7;;;;;;;4.68;84.68;99356.666666667;;;;
2024/02/01 19:53:30;;;;;;;22.9;13.7;;;;;;;4.76;83.03;99350;;;;
2024/02/01 20:03:30;;;;;;;19.6;12.4;;;;;;;4.84;82.42;99355;;;;
2024/02/01 20:14:30;;;;;;;19.6;12.4;;;;;;;4.78;81.68;99350;;;;
2024/02/01 20:25:30;;;;;;;20.4;10.2;;;;;;;4.8;80.65;99348.333333333;;;;
2024/02/01 20:35:30;;;;;;;20.4;10.2;;;;;;;4.81;80.13;99360;;;;
2024/02/01 20:46:30;;;;;;;20.4;10.2;;;;;;;4.82;79.73;99370;;;;
2024/02/01 20:56:32;;;;;;;16.1;8.8;;;;;;;4.83;78.97;99373.333333333;;;;
2024/02/01 21:07:30;;;;;;;16.1;8.8;;;;;;;4.67;79.32;99376.666666667;;;;
2024/02/01 21:17:31;;;;;;;16.1;8.8;;;;;;;4.63;79.56;99388.333333333;;;;
2024/02/01 21:28:30;;;;;;;13.6;8.6;;;;;;;4.52;79.51;99390;;;;
2024/02/01 21:38:30;;;;;;;13.6;8.6;;;;;;;4.45;79.55;99388.333333333;;;;
2024/02/01 21:49:30;;;;;;;13.6;8.6;;;;;;;4.45;79.63;99406.666666667;;;;
2024/02/01 22:00:30;;;;;;;13.3;8.4;;;;;;;4.37;79.42;99406.666666667;;;;
2024/02/01 22:10:30;;;;;;;13.3;8.4;;;;;;;4.32;79.38;99411.666666667;;;;
2024/02/01 22:21:30;;;;;;;13.3;8.4;;;;;;;4.32;79.34;99435;;;;
2024/02/01 22:31:31;;;;;;;16.1;8;;;;;;;4.29;79.5;99436.666666667;;;;
2024/02/01 22:41:30;;;;;;;16.1;8;;;;;;;4.2;79.58;99441.666666667;;;;
2024/02/01 22:51:32;;;;;;;16.1;8;;;;;;;4.12;79.52;99445;;;;
2024/02/01 23:02:30;;;;;;;14.5;8.2;;;;;;;4.08;79.54;99438.333333333;;;;
2024/02/01 23:13:30;;;;;;;14.5;8.2;;;;;;;4.09;79.32;99425;;;;
2024/02/01 23:24:30;;;;;;;14.5;8.2;;;;;;;4.09;79.02;99423.333333333;;;;
2024/02/01 23:35:30;;;;;;;13.1;7.2;;;;;;;4.01;78.89;99428.333333333;;;;
2024/02/01 23:46:30;;;;;;;13.1;7.2;;;;;;;4.01;78.38;99420;;;;
2024/02/01 23:56:30;;;;;;;12;6.3;;;;;;;4.04;77.96;99416.666666667;;;;
